createdAt,value
2023-02-08T00:00:55.698Z,2.01
2023-02-08T00:03:22.722Z,2.14
2023-02-08T00:05:49.330Z,2.20
2023-02-08T00:08:16.299Z,1.98
2023-02-08T00:10:43.766Z,1.94
2023-02-08T00:13:11.627Z,1.88
2023-02-08T00:15:43.108Z,1.94
2023-02-08T00:18:13.027Z,2.05
2023-02-08T00:20:40.636Z,2.11
2023-02-08T00:23:07.755Z,2.05
2023-02-08T00:25:34.436Z,2.07
2023-02-08T00:28:03.846Z,2.07
2023-02-08T00:30:32.210Z,2.08
2023-02-08T00:33:01.513Z,2.08
2023-02-08T00:35:28.751Z,1.99
2023-02-08T00:37:56.131Z,1.90
2023-02-08T00:40:23.425Z,1.85
2023-02-08T00:42:49.898Z,1.83
2023-02-08T00:45:16.344Z,1.91
2023-02-08T00:47:42.838Z,1.89
2023-02-08T00:50:10.180Z,1.89
2023-02-08T00:52:38.263Z,1.89
2023-02-08T00:55:05.471Z,1.94
2023-02-08T00:57:32.895Z,1.79
2023-02-08T00:59:59.517Z,1.77
2023-02-08T01:02:27.705Z,1.75
2023-02-08T01:04:54.706Z,1.87
2023-02-08T01:07:21.450Z,2.04
2023-02-08T01:09:47.848Z,1.79
2023-02-08T01:12:14.512Z,1.48
2023-02-08T01:14:41.798Z,1.49
2023-02-08T01:17:08.435Z,1.63
2023-02-08T01:19:36.271Z,1.56
2023-02-08T01:22:02.864Z,1.60
2023-02-08T01:24:29.350Z,1.41
2023-02-08T01:26:56.346Z,1.58
2023-02-08T01:29:23.171Z,1.47
2023-02-08T01:31:50.427Z,1.49
2023-02-08T01:34:18.896Z,1.38
2023-02-08T01:36:45.301Z,1.15
2023-02-08T01:39:12.173Z,1.18
2023-02-08T01:41:43.710Z,1.25
2023-02-08T01:44:17.678Z,1.15
2023-02-08T01:46:46.599Z,1.11
2023-02-08T01:49:24.066Z,1.14
2023-02-08T01:51:54.818Z,1.19
2023-02-08T01:54:23.312Z,0.90
2023-02-08T01:56:50.384Z,0.98
2023-02-08T01:59:23.328Z,1.13
2023-02-08T02:01:51.801Z,1.11
2023-02-08T02:04:20.747Z,1.05
2023-02-08T02:06:49.198Z,1.17
2023-02-08T02:09:30.732Z,1.17
2023-02-08T02:11:57.792Z,1.07
2023-02-08T02:14:25.680Z,0.98
2023-02-08T02:16:52.341Z,0.84
2023-02-08T02:19:43.267Z,0.92
2023-02-08T02:22:40.079Z,0.69
2023-02-08T02:25:25.079Z,0.65
2023-02-08T02:28:06.767Z,0.82
2023-02-08T02:30:46.271Z,0.78
2023-02-08T02:33:25.043Z,0.83
2023-02-08T02:36:22.830Z,0.83
2023-02-08T02:38:49.210Z,0.75
2023-02-08T02:41:43.132Z,0.71
2023-02-08T02:44:30.262Z,0.79
2023-02-08T02:47:04.892Z,0.73
2023-02-08T02:49:53.174Z,0.84
2023-02-08T02:52:25.102Z,0.76
2023-02-08T02:54:53.077Z,0.70
2023-02-08T02:57:26.499Z,0.68
2023-02-08T02:59:54.962Z,0.81
2023-02-08T03:02:22.298Z,0.86
2023-02-08T03:04:50.824Z,0.96
2023-02-08T03:07:35.291Z,0.65
2023-02-08T03:10:13.366Z,0.57
2023-02-08T03:13:01.112Z,0.55
2023-02-08T03:15:31.432Z,0.57
2023-02-08T03:18:05.309Z,0.55
2023-02-08T03:20:34.957Z,0.52
2023-02-08T03:23:13.593Z,0.40
2023-02-08T03:25:49.774Z,0.56
2023-02-08T03:28:28.696Z,0.79
2023-02-08T03:30:58.489Z,0.72
2023-02-08T03:33:28.964Z,0.54
2023-02-08T03:36:00.679Z,0.53
2023-02-08T03:38:34.009Z,0.49
2023-02-08T03:41:07.315Z,0.43
2023-02-08T03:43:39.374Z,0.56
2023-02-08T03:46:09.310Z,0.57
2023-02-08T03:48:38.980Z,0.45
2023-02-08T03:51:07.111Z,0.36
2023-02-08T03:53:38.398Z,0.38
2023-02-08T03:56:09.532Z,0.42
2023-02-08T03:58:40.929Z,0.32
2023-02-08T04:01:13.389Z,0.49
2023-02-08T04:03:40.925Z,0.38
2023-02-08T04:06:07.836Z,0.27
2023-02-08T04:08:34.379Z,0.27
2023-02-08T04:11:00.950Z,0.29
2023-02-08T04:13:27.465Z,0.26
2023-02-08T04:15:54.070Z,0.28
2023-02-08T04:18:24.093Z,0.06
2023-02-08T04:20:51.129Z,0.18
2023-02-08T04:23:17.817Z,0.35
2023-02-08T04:25:45.574Z,0.26
2023-02-08T04:28:12.317Z,0.20
2023-02-08T04:30:39.626Z,0.13
2023-02-08T04:33:07.893Z,0.09
2023-02-08T04:35:34.530Z,0.31
2023-02-08T04:38:02.450Z,0.37
2023-02-08T04:40:28.958Z,0.27
2023-02-08T04:42:55.582Z,0.12
2023-02-08T04:45:22.503Z,0.22
2023-02-08T04:47:49.061Z,0.21
2023-02-08T04:50:17.837Z,0.12
2023-02-08T04:52:44.551Z,0.24
2023-02-08T04:55:11.952Z,0.19
2023-02-08T04:57:39.993Z,0.17
2023-02-08T05:00:08.851Z,0.20
2023-02-08T05:02:35.900Z,0.01
2023-02-08T05:05:03.448Z,-0.06
2023-02-08T05:07:30.546Z,0.16
2023-02-08T05:09:57.207Z,0.12
2023-02-08T05:12:24.657Z,0.03
2023-02-08T05:14:51.977Z,0.08
2023-02-08T05:17:18.376Z,0.12
2023-02-08T05:19:46.573Z,-0.01
2023-02-08T05:22:14.998Z,0.07
2023-02-08T05:24:41.904Z,-0.01
2023-02-08T05:27:12.576Z,0.07
2023-02-08T05:29:39.807Z,-0.09
2023-02-08T05:32:07.461Z,0.06
2023-02-08T05:34:36.933Z,0.08
2023-02-08T05:37:03.699Z,0.02
2023-02-08T05:39:32.406Z,0.12
2023-02-08T05:42:01.864Z,0.03
2023-02-08T05:44:31.004Z,-0.24
2023-02-08T05:46:58.195Z,-0.07
2023-02-08T05:49:25.358Z,0.05
2023-02-08T05:51:53.400Z,0.08
2023-02-08T05:54:20.032Z,0.09
2023-02-08T05:56:51.366Z,0.06
2023-02-08T05:59:19.056Z,0.19
2023-02-08T06:01:45.673Z,0.12
2023-02-08T06:04:14.132Z,-0.04
2023-02-08T06:06:42.975Z,0.06
2023-02-08T06:09:11.425Z,0.19
2023-02-08T06:11:38.364Z,-0.12
2023-02-08T06:14:05.455Z,0.04
2023-02-08T06:16:32.079Z,0.25
2023-02-08T06:19:08.101Z,0.15
2023-02-08T06:21:35.776Z,0.11
2023-02-08T06:24:04.161Z,-0.04
2023-02-08T06:26:34.181Z,0.02
2023-02-08T06:29:02.353Z,0.01
2023-02-08T06:31:31.368Z,-0.13
2023-02-08T06:33:58.478Z,-0.02
2023-02-08T06:36:25.000Z,0.08
2023-02-08T06:38:51.518Z,0.09
2023-02-08T06:41:18.811Z,-0.05
2023-02-08T06:43:45.444Z,-0.02
2023-02-08T06:46:12.271Z,0.05
2023-02-08T06:48:39.794Z,0.08
2023-02-08T06:51:06.697Z,0.02
2023-02-08T06:53:34.579Z,-0.03
2023-02-08T06:56:01.820Z,0.06
2023-02-08T06:58:28.424Z,0.14
2023-02-08T07:00:58.950Z,0.34
2023-02-08T07:03:25.454Z,0.29
2023-02-08T07:06:05.549Z,0.28
2023-02-08T07:08:34.963Z,0.27
2023-02-08T07:11:06.608Z,0.15
2023-02-08T07:13:33.023Z,0.24
2023-02-08T07:15:59.369Z,0.28
2023-02-08T07:18:26.187Z,0.21
2023-02-08T07:20:52.746Z,0.15
2023-02-08T07:23:20.609Z,0.37
2023-02-08T07:25:55.964Z,0.51
2023-02-08T07:28:22.605Z,0.66
2023-02-08T07:30:57.312Z,0.61
2023-02-08T07:33:24.373Z,0.82
2023-02-08T07:35:54.445Z,0.86
2023-02-08T07:38:24.388Z,1.00
2023-02-08T07:40:50.993Z,0.87
2023-02-08T07:43:17.891Z,0.96
2023-02-08T07:45:46.654Z,1.29
2023-02-08T07:48:13.356Z,1.18
2023-02-08T07:50:40.779Z,1.10
2023-02-08T07:53:12.515Z,1.48
2023-02-08T07:55:41.244Z,1.60
2023-02-08T07:58:10.838Z,1.64
2023-02-08T08:00:41.172Z,1.75
2023-02-08T08:03:09.617Z,1.92
2023-02-08T08:05:36.045Z,2.21
2023-02-08T08:08:02.534Z,1.97
2023-02-08T08:10:30.483Z,2.09
2023-02-08T08:12:57.404Z,1.90
2023-02-08T08:15:23.908Z,1.92
2023-02-08T08:17:50.401Z,2.37
2023-02-08T08:20:17.236Z,2.33
2023-02-08T08:22:43.805Z,2.17
2023-02-08T08:25:10.480Z,2.35
2023-02-08T08:27:38.241Z,2.32
2023-02-08T08:30:12.622Z,2.74
2023-02-08T08:32:40.339Z,2.88
2023-02-08T08:35:07.435Z,2.84
2023-02-08T08:37:36.779Z,2.89
2023-02-08T08:40:04.785Z,2.87
2023-02-08T08:42:31.325Z,3.39
2023-02-08T08:44:59.193Z,3.57
2023-02-08T08:47:25.680Z,3.64
2023-02-08T08:49:53.028Z,3.18
2023-02-08T08:52:20.166Z,3.22
2023-02-08T08:54:47.733Z,3.21
2023-02-08T08:57:14.536Z,3.05
2023-02-08T08:59:41.201Z,3.38
2023-02-08T09:02:07.604Z,3.68
2023-02-08T09:04:33.998Z,3.91
2023-02-08T09:07:01.284Z,3.94
2023-02-08T09:09:28.571Z,4.01
2023-02-08T09:11:56.161Z,4.21
2023-02-08T09:14:22.897Z,4.28
2023-02-08T09:16:49.708Z,4.49
2023-02-08T09:19:16.306Z,4.56
2023-02-08T09:21:43.240Z,4.38
2023-02-08T09:24:10.666Z,4.63
2023-02-08T09:26:38.023Z,4.91
2023-02-08T09:29:05.684Z,4.83
2023-02-08T09:31:34.342Z,5.00
2023-02-08T09:34:02.207Z,4.92
2023-02-08T09:36:31.984Z,4.60
2023-02-08T09:39:04.609Z,4.59
2023-02-08T09:41:37.043Z,5.20
2023-02-08T09:44:12.398Z,5.26
2023-02-08T09:46:45.914Z,4.87
2023-02-08T09:49:25.917Z,5.52
2023-02-08T09:52:13.420Z,5.64
2023-02-08T09:54:43.508Z,5.27
2023-02-08T09:57:17.035Z,5.45
2023-02-08T09:59:54.932Z,5.64
2023-02-08T10:02:33.938Z,5.39
2023-02-08T10:05:05.312Z,5.74
2023-02-08T10:07:32.576Z,5.92
2023-02-08T10:10:01.083Z,5.76
2023-02-08T10:12:47.466Z,6.32
2023-02-08T10:15:20.236Z,6.55
2023-02-08T10:18:00.224Z,6.09
2023-02-08T10:20:46.248Z,5.82
2023-02-08T10:23:23.897Z,6.68
2023-02-08T10:25:53.527Z,6.47
2023-02-08T10:28:41.851Z,6.47
2023-02-08T10:31:23.573Z,6.95
2023-02-08T10:33:58.991Z,6.72
2023-02-08T10:39:15.652Z,6.71
2023-02-08T10:41:43.926Z,7.21
2023-02-08T10:44:23.016Z,7.31
2023-02-08T10:47:12.692Z,7.53
2023-02-08T10:49:53.704Z,7.46
2023-02-08T10:52:21.798Z,7.60
2023-02-08T10:54:52.327Z,7.07
2023-02-08T10:57:24.963Z,7.51
2023-02-08T10:59:54.119Z,7.39
2023-02-08T11:02:27.508Z,7.25
2023-02-08T11:05:01.753Z,6.25
2023-02-08T11:07:29.624Z,7.50
2023-02-08T11:10:13.430Z,7.66
2023-02-08T11:12:41.116Z,7.63
2023-02-08T11:15:21.189Z,7.45
2023-02-08T11:17:53.578Z,7.19
2023-02-08T11:20:24.153Z,7.59
2023-02-08T11:22:51.927Z,7.96
2023-02-08T11:25:36.045Z,8.46
2023-02-08T11:28:03.221Z,7.83
2023-02-08T11:30:29.732Z,8.58
2023-02-08T11:33:14.810Z,8.73
2023-02-08T11:35:42.468Z,8.85
2023-02-08T11:38:18.045Z,8.91
2023-02-08T11:40:44.567Z,8.60
2023-02-08T11:43:40.930Z,8.52
2023-02-08T11:46:08.684Z,8.70
2023-02-08T11:48:42.247Z,8.68
2023-02-08T11:51:09.578Z,8.74
2023-02-08T11:53:38.346Z,9.14
2023-02-08T11:56:25.112Z,9.25
2023-02-08T11:59:13.018Z,9.10
2023-02-08T12:01:41.411Z,9.44
2023-02-08T12:04:11.313Z,9.82
2023-02-08T12:06:47.555Z,9.66
2023-02-08T12:09:30.107Z,9.36
2023-02-08T12:12:15.671Z,8.97
2023-02-08T12:14:48.648Z,9.26
2023-02-08T12:17:24.328Z,9.50
2023-02-08T12:19:58.885Z,9.90
2023-02-08T12:22:27.587Z,9.78
2023-02-08T12:25:00.753Z,10.04
2023-02-08T12:27:38.036Z,10.29
2023-02-08T12:30:25.798Z,10.51
2023-02-08T12:32:57.713Z,9.84
2023-02-08T12:36:01.445Z,10.63
2023-02-08T12:39:07.836Z,9.68
2023-02-08T12:41:58.880Z,10.52
2023-02-08T12:44:48.725Z,9.98
2023-02-08T12:47:35.094Z,10.00
2023-02-08T12:50:27.134Z,10.29
2023-02-08T12:53:09.456Z,10.65
2023-02-08T12:55:39.352Z,10.37
2023-02-08T12:58:26.526Z,10.27
2023-02-08T13:01:05.063Z,10.25
2023-02-08T13:03:50.620Z,10.50
2023-02-08T13:06:24.524Z,9.92
2023-02-08T13:09:06.000Z,10.04
2023-02-08T13:11:42.207Z,10.35
2023-02-08T13:14:27.712Z,10.29
2023-02-08T13:16:56.026Z,10.37
2023-02-08T13:19:35.173Z,10.57
2023-02-08T13:22:05.326Z,10.56
2023-02-08T13:24:37.436Z,10.25
2023-02-08T13:27:07.457Z,11.01
2023-02-08T13:29:34.629Z,10.25
2023-02-08T13:32:09.640Z,10.57
2023-02-08T13:34:39.204Z,10.33
2023-02-08T13:37:26.725Z,10.41
2023-02-08T13:40:05.000Z,10.56
2023-02-08T13:42:42.609Z,10.19
2023-02-08T13:45:12.045Z,10.24
2023-02-08T13:47:44.274Z,10.30
2023-02-08T13:50:32.706Z,9.92
2023-02-08T13:53:05.076Z,9.48
2023-02-08T13:55:36.671Z,10.13
2023-02-08T13:58:04.771Z,9.96
2023-02-08T14:00:31.426Z,10.13
2023-02-08T14:03:02.489Z,10.03
2023-02-08T14:05:44.860Z,10.50
2023-02-08T14:08:30.181Z,9.87
2023-02-08T14:11:06.390Z,9.83
2023-02-08T14:13:35.757Z,9.80
2023-02-08T14:16:21.340Z,9.88
2023-02-08T14:18:52.313Z,9.38
2023-02-08T14:21:28.912Z,10.09
2023-02-08T14:24:07.875Z,9.88
2023-02-08T14:26:36.589Z,9.34
2023-02-08T14:29:04.725Z,9.41
2023-02-08T14:31:40.821Z,9.42
2023-02-08T14:34:20.681Z,9.09
2023-02-08T14:36:47.904Z,8.95
2023-02-08T14:39:29.467Z,9.05
2023-02-08T14:42:05.755Z,9.54
2023-02-08T14:44:38.717Z,9.89
2023-02-08T14:47:12.258Z,9.18
2023-02-08T14:49:42.574Z,9.57
2023-02-08T14:52:16.355Z,9.81
2023-02-08T14:55:03.220Z,8.97
2023-02-08T14:57:33.704Z,9.07
2023-02-08T15:00:02.610Z,9.34
2023-02-08T15:02:32.106Z,9.06
2023-02-08T15:05:00.125Z,8.92
2023-02-08T15:07:49.628Z,9.19
2023-02-08T15:10:19.382Z,9.09
2023-02-08T15:12:54.299Z,8.70
2023-02-08T15:15:33.921Z,8.92
2023-02-08T15:18:02.829Z,8.90
2023-02-08T15:20:35.988Z,9.23
2023-02-08T15:23:22.357Z,9.16
2023-02-08T15:26:20.520Z,8.63
2023-02-08T15:28:47.391Z,8.60
2023-02-08T15:31:15.869Z,7.79
2023-02-08T15:33:43.739Z,8.14
2023-02-08T15:36:28.679Z,8.30
2023-02-08T15:38:56.659Z,7.99
2023-02-08T15:41:34.334Z,8.03
2023-02-08T15:44:02.300Z,8.23
2023-02-08T15:46:29.980Z,8.18
2023-02-08T15:48:58.053Z,8.26
2023-02-08T15:51:27.393Z,8.33
2023-02-08T15:53:57.421Z,8.16
2023-02-08T15:56:36.399Z,8.30
2023-02-08T15:59:06.950Z,8.46
2023-02-08T16:01:34.667Z,8.22
2023-02-08T16:04:06.155Z,8.29
2023-02-08T16:06:38.098Z,8.12
2023-02-08T16:09:04.741Z,8.16
2023-02-08T16:11:35.672Z,7.70
2023-02-08T16:14:04.498Z,7.39
2023-02-08T16:16:47.440Z,7.56
2023-02-08T16:19:24.503Z,7.69
2023-02-08T16:21:52.732Z,7.70
2023-02-08T16:24:21.677Z,7.28
2023-02-08T16:27:05.370Z,7.38
2023-02-08T16:29:37.686Z,7.03
2023-02-08T16:32:13.505Z,6.94
2023-02-08T16:34:41.776Z,7.14
2023-02-08T16:37:21.580Z,6.77
2023-02-08T16:39:53.408Z,6.69
2023-02-08T16:42:43.405Z,6.58
2023-02-08T16:45:29.066Z,6.58
2023-02-08T16:48:13.417Z,6.75
2023-02-08T16:50:49.016Z,6.48
2023-02-08T16:53:16.297Z,6.34
2023-02-08T16:55:45.187Z,6.31
2023-02-08T16:58:17.218Z,6.28
2023-02-08T17:00:45.468Z,6.30
2023-02-08T17:03:14.245Z,6.37
2023-02-08T17:05:41.796Z,6.33
2023-02-08T17:08:15.696Z,6.17
2023-02-08T17:10:43.900Z,6.07
2023-02-08T17:13:20.283Z,6.27
2023-02-08T17:15:48.839Z,5.99
2023-02-08T17:18:15.863Z,6.24
2023-02-08T17:20:43.564Z,6.16
2023-02-08T17:23:10.686Z,5.97
2023-02-08T17:25:39.210Z,5.83
2023-02-08T17:28:08.246Z,5.95
2023-02-08T17:30:41.289Z,5.90
2023-02-08T17:33:09.032Z,5.68
2023-02-08T17:35:37.994Z,5.38
2023-02-08T17:38:05.259Z,5.76
2023-02-08T17:40:33.872Z,5.83
2023-02-08T17:43:00.618Z,5.98
2023-02-08T17:45:28.279Z,5.57
2023-02-08T17:47:57.068Z,5.75
2023-02-08T17:50:24.736Z,5.11
2023-02-08T17:52:52.522Z,5.62
2023-02-08T17:55:21.918Z,5.19
2023-02-08T17:57:49.684Z,5.37
2023-02-08T18:00:21.221Z,5.44
2023-02-08T18:02:50.973Z,5.38
2023-02-08T18:05:22.952Z,5.28
2023-02-08T18:07:50.537Z,5.06
2023-02-08T18:10:18.390Z,4.56
2023-02-08T18:12:45.290Z,4.72
2023-02-08T18:15:16.756Z,4.61
2023-02-08T18:17:46.388Z,4.68
2023-02-08T18:20:16.062Z,4.69
2023-02-08T18:22:43.656Z,4.84
2023-02-08T18:25:12.370Z,4.69
2023-02-08T18:27:40.692Z,4.82
2023-02-08T18:30:09.854Z,4.90
2023-02-08T18:32:37.589Z,5.11
2023-02-08T18:35:07.989Z,4.88
2023-02-08T18:37:35.342Z,4.63
2023-02-08T18:40:05.133Z,4.73
2023-02-08T18:42:36.267Z,4.59
2023-02-08T18:45:04.150Z,4.41
2023-02-08T18:47:32.941Z,4.22
2023-02-08T18:50:02.260Z,4.35
2023-02-08T18:52:31.459Z,4.65
2023-02-08T18:54:59.403Z,4.45
2023-02-08T18:57:26.546Z,4.51
2023-02-08T18:59:54.392Z,4.94
2023-02-08T19:02:24.477Z,4.41
2023-02-08T19:04:58.782Z,4.63
2023-02-08T19:07:25.754Z,4.59
2023-02-08T19:09:52.843Z,4.05
2023-02-08T19:12:21.443Z,4.44
2023-02-08T19:14:53.870Z,4.25
2023-02-08T19:17:21.015Z,4.73
2023-02-08T19:19:48.376Z,4.59
2023-02-08T19:22:17.437Z,4.17
2023-02-08T19:24:45.348Z,4.21
2023-02-08T19:27:25.166Z,4.27
2023-02-08T19:29:56.862Z,4.47
2023-02-08T19:32:24.143Z,4.34
2023-02-08T19:34:57.686Z,4.51
2023-02-08T19:37:27.211Z,4.37
2023-02-08T19:39:53.819Z,4.03
2023-02-08T19:42:21.536Z,3.91
2023-02-08T19:44:48.779Z,3.95
2023-02-08T19:47:18.491Z,4.33
2023-02-08T19:49:45.570Z,4.20
2023-02-08T19:52:13.378Z,4.47
2023-02-08T19:54:41.059Z,4.43
2023-02-08T19:57:11.873Z,4.33
2023-02-08T19:59:39.062Z,3.97
2023-02-08T20:02:07.460Z,3.64
2023-02-08T20:04:34.538Z,3.60
2023-02-08T20:07:01.285Z,4.00
2023-02-08T20:09:48.837Z,4.04
2023-02-08T20:12:15.377Z,3.97
2023-02-08T20:14:43.362Z,4.14
2023-02-08T20:17:10.567Z,4.01
2023-02-08T20:19:38.412Z,4.19
2023-02-08T20:22:06.718Z,4.35
2023-02-08T20:24:34.280Z,3.98
2023-02-08T20:27:01.614Z,3.94
2023-02-08T20:29:29.214Z,4.21
2023-02-08T20:31:57.730Z,4.23
2023-02-08T20:34:24.965Z,4.22
2023-02-08T20:37:06.207Z,4.04
2023-02-08T20:39:35.230Z,3.69
2023-02-08T20:42:02.946Z,3.56
2023-02-08T20:44:31.895Z,4.04
2023-02-08T20:46:59.779Z,3.75
2023-02-08T20:49:27.163Z,3.76
2023-02-08T20:51:55.068Z,3.76
2023-02-08T20:54:25.579Z,4.19
2023-02-08T20:56:53.377Z,3.85
2023-02-08T20:59:20.287Z,3.80
2023-02-08T21:01:52.640Z,3.67
2023-02-08T21:04:23.665Z,3.87
2023-02-08T21:06:51.633Z,4.25
2023-02-08T21:09:19.103Z,4.05
2023-02-08T21:11:47.867Z,3.56
2023-02-08T21:14:19.293Z,3.85
2023-02-08T21:16:49.490Z,3.67
2023-02-08T21:19:17.292Z,4.03
2023-02-08T21:21:46.261Z,4.03
2023-02-08T21:24:15.046Z,3.80
2023-02-08T21:26:42.701Z,3.85
2023-02-08T21:29:10.014Z,3.73
2023-02-08T21:31:38.030Z,3.91
2023-02-08T21:34:05.890Z,3.79
2023-02-08T21:36:33.188Z,3.80
2023-02-08T21:39:00.157Z,3.63
2023-02-08T21:41:28.547Z,3.73
2023-02-08T21:43:57.597Z,3.47
2023-02-08T21:46:25.214Z,3.74
2023-02-08T21:49:11.266Z,3.75
2023-02-08T21:51:56.209Z,3.67
2023-02-08T21:54:43.347Z,3.37
2023-02-08T21:57:38.086Z,3.38
2023-02-08T22:00:08.956Z,3.31
2023-02-08T22:02:36.545Z,3.69
2023-02-08T22:05:04.972Z,3.70
2023-02-08T22:07:42.747Z,3.21
2023-02-08T22:10:13.964Z,3.18
2023-02-08T22:12:42.273Z,3.17
2023-02-08T22:15:12.961Z,3.25
2023-02-08T22:17:40.306Z,3.10
2023-02-08T22:20:08.339Z,3.23
2023-02-08T22:22:38.764Z,2.97
2023-02-08T22:25:05.587Z,3.63
2023-02-08T22:27:33.042Z,3.47
2023-02-08T22:30:00.966Z,3.13
2023-02-08T22:32:29.807Z,2.71
2023-02-08T22:34:57.433Z,3.22
2023-02-08T22:37:24.607Z,3.29
2023-02-08T22:39:51.431Z,3.28
2023-02-08T22:42:18.101Z,3.16
2023-02-08T22:44:45.155Z,3.13
2023-02-08T22:47:13.594Z,2.97
2023-02-08T22:49:40.159Z,3.45
2023-02-08T22:52:08.834Z,3.19
2023-02-08T22:54:37.282Z,3.39
2023-02-08T22:57:06.290Z,3.19
2023-02-08T22:59:34.589Z,3.25
2023-02-08T23:02:03.177Z,3.09
2023-02-08T23:04:30.288Z,3.13
2023-02-08T23:06:57.465Z,2.94
2023-02-08T23:09:24.389Z,2.95
2023-02-08T23:11:51.072Z,2.93
2023-02-08T23:14:18.510Z,3.10
2023-02-08T23:16:45.555Z,2.82
2023-02-08T23:19:16.136Z,2.67
2023-02-08T23:21:43.169Z,2.75
2023-02-08T23:24:11.575Z,2.64
2023-02-08T23:26:38.681Z,2.57
2023-02-08T23:29:05.208Z,2.32
2023-02-08T23:31:33.449Z,2.68
2023-02-08T23:34:02.944Z,2.55
2023-02-08T23:36:29.837Z,2.50
2023-02-08T23:38:56.417Z,2.69
2023-02-08T23:41:24.117Z,2.56
2023-02-08T23:43:53.874Z,2.35
2023-02-08T23:46:33.413Z,2.31
2023-02-08T23:49:00.146Z,2.28
2023-02-08T23:51:29.837Z,2.61
2023-02-08T23:53:56.751Z,2.70
2023-02-08T23:56:27.300Z,2.25
2023-02-08T23:58:55.229Z,2.36
